Time;durP1;ratioP1;P1;durP2;ratioP2;P2;SDS_P1;SDS_P2;PMS_P1;PMS_P2;Temp;Humidity;BMP_temperature;BMP_pressure;BME280_temperature;BME280_humidity;BME280_pressure;Samples;Min_cycle;Max_cycle;Signal;HPM_P1;HPM_P2
2021/04/07 00:05:05;;;;;;;5.53;2.03;;;;;;;1.06;78.04;100039.91;20830742;28;20563;-68
2021/04/07 00:15:27;;;;;;;6.85;2.55;;;;;;;0.89;78.29;100053.13;20850507;28;20099;-68
2021/04/07 00:25:28;;;;;;;9.93;2.72;;;;;;;0.94;77.20;100050.47;20874756;28;20116;-68
2021/04/07 00:35:30;;;;;;;5.45;2.22;;;;;;;0.80;77.21;100059.31;20828281;28;20104;-68
2021/04/07 00:45:32;;;;;;;5.30;2.45;;;;;;;0.74;77.36;100059.44;20828765;28;20065;-67
2021/04/07 00:55:35;;;;;;;5.47;2.95;;;;;;;0.58;77.89;100073.50;20835556;28;20068;-68
2021/04/07 01:05:36;;;;;;;6.28;2.50;;;;;;;0.70;77.41;100085.28;20825513;28;20398;-68
2021/04/07 01:15:37;;;;;;;7.07;3.10;;;;;;;0.48;78.29;100087.41;20825962;28;20049;-68
2021/04/07 01:25:39;;;;;;;6.15;3.03;;;;;;;0.48;78.53;100096.84;20831879;28;20099;-68
2021/04/07 01:35:40;;;;;;;7.32;2.92;;;;;;;0.45;79.39;100107.22;20823157;28;20053;-68
2021/04/07 01:45:41;;;;;;;7.50;3.83;;;;;;;0.46;78.46;100112.31;20823299;28;20056;-68
2021/04/07 01:55:42;;;;;;;9.52;3.10;;;;;;;0.45;79.28;100120.09;20830766;28;20104;-68
2021/04/07 02:05:43;;;;;;;10.85;3.78;;;;;;;0.39;79.21;100133.91;20822850;28;20059;-68
2021/04/07 02:15:44;;;;;;;6.53;3.20;;;;;;;0.42;79.03;100149.31;20903210;28;20056;-69
2021/04/07 02:25:45;;;;;;;10.48;3.75;;;;;;;0.49;79.26;100163.78;20864035;28;20559;-68
2021/04/07 02:35:46;;;;;;;7.75;2.75;;;;;;;0.55;79.04;100171.41;20819557;28;20409;-68
2021/04/07 02:45:47;;;;;;;11.75;3.05;;;;;;;0.55;78.78;100176.56;20820200;28;20100;-68
2021/04/07 02:55:48;;;;;;;7.10;2.55;;;;;;;0.59;78.28;100188.50;20842152;28;20057;-68
2021/04/07 03:05:49;;;;;;;6.15;2.28;;;;;;;0.60;77.43;100200.50;20835282;28;20059;-68
2021/04/07 03:15:50;;;;;;;6.82;2.05;;;;;;;0.53;77.51;100206.63;20835321;28;20050;-68
2021/04/07 03:25:51;;;;;;;4.72;2.20;;;;;;;0.64;77.48;100206.44;20842804;28;20059;-68
2021/04/07 03:35:55;;;;;;;6.60;2.45;;;;;;;0.51;75.80;100208.34;20833177;28;20567;-68
2021/04/07 03:45:57;;;;;;;6.05;2.70;;;;;;;0.43;76.51;100218.78;20832963;28;20416;-68
2021/04/07 03:55:59;;;;;;;6.18;2.15;;;;;;;0.26;76.19;100240.50;20840380;28;20508;-69
2021/04/07 04:06:00;;;;;;;6.63;2.30;;;;;;;0.16;76.84;100262.09;20908126;28;20099;-68
2021/04/07 04:16:01;;;;;;;6.53;2.28;;;;;;;0.06;77.28;100286.25;20912921;28;20080;-68
2021/04/07 04:26:02;;;;;;;5.80;2.22;;;;;;;0.18;75.12;100309.25;20869281;28;20124;-68
2021/04/07 04:36:03;;;;;;;5.95;2.55;;;;;;;0.23;74.72;100322.91;20867739;28;20045;-68
2021/04/07 04:46:04;;;;;;;8.50;2.15;;;;;;;0.02;74.23;100333.47;20859721;28;20045;-68
2021/04/07 04:56:05;;;;;;;5.60;2.55;;;;;;;-0.07;74.56;100353.31;20869902;28;20037;-68
2021/04/07 05:06:06;;;;;;;5.68;2.20;;;;;;;-0.07;74.56;100373.91;20869199;28;20060;-68
2021/04/07 05:16:08;;;;;;;8.77;2.85;;;;;;;0.10;73.58;100386.56;20858850;28;20496;-68
2021/04/07 05:26:09;;;;;;;11.82;3.45;;;;;;;0.02;73.75;100395.22;20879661;28;20515;-68
2021/04/07 05:36:13;;;;;;;9.45;2.72;;;;;;;0.21;72.37;100400.13;20869687;28;20397;-68
2021/04/07 05:46:16;;;;;;;8.38;2.95;;;;;;;0.16;72.14;100421.66;20843293;28;20394;-68
2021/04/07 05:56:17;;;;;;;9.10;2.85;;;;;;;0.35;72.79;100436.88;20876336;28;20481;-67
2021/04/07 06:06:19;;;;;;;9.07;3.08;;;;;;;0.39;71.90;100447.97;20868139;28;20108;-67
2021/04/07 06:16:20;;;;;;;7.18;2.85;;;;;;;0.73;71.15;100464.69;20838607;28;20045;-67
2021/04/07 06:26:22;;;;;;;7.85;3.10;;;;;;;1.02;70.60;100482.31;20848488;28;20082;-67
2021/04/07 06:36:23;;;;;;;6.72;2.88;;;;;;;1.03;71.06;100494.34;20860420;28;20049;-67
2021/04/07 06:46:27;;;;;;;7.80;3.15;;;;;;;1.10;69.62;100500.28;20815460;28;20045;-67
2021/04/07 06:56:28;;;;;;;10.10;3.25;;;;;;;1.42;69.83;100507.53;20823389;28;20053;-67
2021/04/07 07:06:30;;;;;;;4.65;2.33;;;;;;;1.58;68.67;100517.56;20833851;28;20053;-67
2021/04/07 07:16:31;;;;;;;8.88;3.28;;;;;;;1.97;67.56;100533.28;20813120;28;20045;-67
2021/04/07 07:26:40;;;;;;;7.45;2.85;;;;;;;2.29;65.87;100543.03;20827031;28;20042;-67
2021/04/07 07:36:41;;;;;;;8.98;2.97;;;;;;;2.25;65.98;100559.47;20836284;28;20095;-68
2021/04/07 07:46:43;;;;;;;8.25;3.20;;;;;;;2.37;65.08;100565.28;20818884;28;20131;-68
2021/04/07 07:56:45;;;;;;;7.10;3.50;;;;;;;2.43;64.45;100590.16;20892854;28;20076;-68
2021/04/07 08:06:46;;;;;;;6.63;3.45;;;;;;;2.49;63.68;100585.69;20879674;28;20076;-68
2021/04/07 08:16:48;;;;;;;10.10;4.03;;;;;;;2.94;62.01;100584.00;20856858;28;20136;-69
2021/04/07 08:26:50;;;;;;;7.75;3.72;;;;;;;3.37;61.50;100583.91;20875891;28;20063;-68
2021/04/07 08:36:51;;;;;;;8.85;4.15;;;;;;;3.60;59.14;100601.53;20868970;28;20048;-68
2021/04/07 08:46:57;;;;;;;8.30;3.13;;;;;;;3.80;57.40;100603.66;20848071;28;20045;-68
2021/04/07 08:56:58;;;;;;;8.48;3.40;;;;;;;3.40;58.81;100604.53;20849892;28;20103;-68
2021/04/07 09:07:01;;;;;;;10.18;3.92;;;;;;;3.71;58.65;100606.44;20861674;28;20045;-68
2021/04/07 09:17:04;;;;;;;11.30;3.28;;;;;;;3.24;59.59;100628.19;20855549;28;20050;-69
2021/04/07 09:27:06;;;;;;;12.48;3.30;;;;;;;2.77;60.68;100640.31;20854608;28;20045;-69
2021/04/07 09:37:08;;;;;;;7.05;3.35;;;;;;;3.30;60.46;100646.19;20840779;28;20424;-69
2021/04/07 09:47:09;;;;;;;9.65;2.63;;;;;;;3.77;57.88;100643.41;20866288;28;20041;-69
2021/04/07 09:57:11;;;;;;;8.90;2.80;;;;;;;3.78;56.52;100626.13;20879783;28;20044;-69
2021/04/07 10:07:20;;;;;;;13.52;3.17;;;;;;;3.86;57.00;100613.84;20865477;28;20045;-69
2021/04/07 10:17:27;;;;;;;8.48;2.47;;;;;;;3.80;55.80;100614.00;20829496;28;20420;-68
2021/04/07 10:27:28;;;;;;;10.27;2.43;;;;;;;5.24;52.57;100607.59;20867458;28;20056;-68
2021/04/07 10:37:29;;;;;;;7.82;2.42;;;;;;;4.72;53.47;100618.59;20849493;28;20128;-68
2021/04/07 10:47:35;;;;;;;9.77;2.38;;;;;;;4.61;53.99;100615.44;20846949;28;20050;-68
2021/04/07 10:57:38;;;;;;;10.73;2.50;;;;;;;3.98;54.87;100623.94;20830741;28;20052;-68
2021/04/07 11:07:39;;;;;;;9.05;2.08;;;;;;;3.93;55.47;100637.88;20858406;28;20456;-70
2021/04/07 11:17:53;;;;;;;7.85;1.92;;;;;;;4.05;56.94;100651.41;20857172;28;20124;-69
2021/04/07 11:27:58;;;;;;;7.53;2.63;;;;;;;4.17;54.73;100650.22;20849156;28;20045;-69
2021/04/07 11:38:03;;;;;;;8.93;2.73;;;;;;;4.41;55.62;100659.16;20832881;28;20052;-69
2021/04/07 11:48:14;;;;;;;7.10;2.42;;;;;;;3.88;57.51;100674.22;20818326;28;20064;-69
2021/04/07 11:58:15;;;;;;;9.55;2.60;;;;;;;3.91;60.13;100668.16;20866770;28;20055;-69
2021/04/07 12:08:16;;;;;;;6.28;1.90;;;;;;;3.77;59.84;100684.81;20878187;28;20045;-69
2021/04/07 12:18:18;;;;;;;5.57;2.10;;;;;;;3.69;57.74;100697.09;20822356;28;20049;-67
2021/04/07 12:28:19;;;;;;;12.32;2.55;;;;;;;4.36;57.75;100673.97;20852152;28;20071;-67
2021/04/07 12:38:21;;;;;;;7.30;1.77;;;;;;;3.75;58.47;100706.47;20843545;28;20112;-68
2021/04/07 12:48:22;;;;;;;9.50;2.15;;;;;;;3.51;61.06;100714.72;20864730;28;20076;-68
2021/04/07 12:58:23;;;;;;;7.50;2.13;;;;;;;3.82;60.58;100718.38;20869606;28;20046;-68
2021/04/07 13:08:24;;;;;;;7.45;2.20;;;;;;;3.55;61.39;100739.66;20891273;28;20421;-69
2021/04/07 13:18:25;;;;;;;5.93;1.92;;;;;;;3.17;62.06;100746.44;20839662;28;20061;-68
2021/04/07 13:28:26;;;;;;;6.78;2.53;;;;;;;2.92;64.53;100742.56;20869877;28;20049;-68
2021/04/07 13:48:34;;;;;;;9.23;2.65;;;;;;;2.97;73.45;100756.28;20866608;28;20377;-68
2021/04/07 13:58:35;;;;;;;11.05;3.47;;;;;;;2.26;81.88;100747.97;20861890;28;20057;-70
2021/04/07 14:08:37;;;;;;;8.80;3.22;;;;;;;2.10;86.16;100756.78;20863493;28;20517;-69
2021/04/07 14:18:38;;;;;;;12.90;4.03;;;;;;;2.09;89.30;100765.41;20854663;28;20621;-70
2021/04/07 14:28:39;;;;;;;10.40;4.20;;;;;;;2.06;89.70;100755.13;20878261;28;20045;-70
2021/04/07 14:38:41;;;;;;;9.30;3.92;;;;;;;1.86;88.67;100777.78;20852020;28;20068;-70
2021/04/07 14:48:43;;;;;;;11.13;4.10;;;;;;;1.97;89.41;100801.72;20859882;28;20129;-71
2021/04/07 14:58:44;;;;;;;11.10;4.53;;;;;;;1.81;90.82;100798.50;20869659;28;20050;-70
2021/04/07 15:08:46;;;;;;;12.93;5.82;;;;;;;1.84;92.09;100795.00;20830288;28;20493;-70
2021/04/07 15:18:47;;;;;;;11.55;5.22;;;;;;;1.90;92.15;100769.13;20845118;28;20037;-70
2021/04/07 15:28:50;;;;;;;13.27;6.03;;;;;;;2.09;90.73;100783.47;20850101;28;20088;-70
2021/04/07 15:38:52;;;;;;;10.32;5.50;;;;;;;2.33;89.87;100784.88;20867032;28;20446;-69
2021/04/07 15:48:53;;;;;;;11.65;5.57;;;;;;;2.17;89.24;100806.63;20833750;28;20049;-69
2021/04/07 15:58:54;;;;;;;13.10;5.97;;;;;;;2.31;88.40;100799.53;20852983;28;20544;-68
2021/04/07 16:08:55;;;;;;;13.20;5.40;;;;;;;2.43;87.20;100799.38;20862953;28;20390;-68
2021/04/07 16:18:56;;;;;;;12.02;5.45;;;;;;;2.55;86.26;100796.59;20868595;28;20128;-68
2021/04/07 16:28:58;;;;;;;18.92;6.55;;;;;;;2.76;87.00;100805.75;20873053;28;20580;-69
2021/04/07 16:38:59;;;;;;;12.18;5.20;;;;;;;2.78;88.10;100804.84;20856322;28;20065;-69
2021/04/07 16:49:00;;;;;;;10.85;5.32;;;;;;;2.72;86.40;100798.91;20854429;28;20638;-69
2021/04/07 16:59:01;;;;;;;10.40;4.68;;;;;;;2.66;85.60;100802.44;20871774;28;20060;-69
2021/04/07 17:09:02;;;;;;;9.10;4.78;;;;;;;2.62;85.60;100803.38;20871005;28;20087;-68
2021/04/07 17:19:04;;;;;;;10.27;4.80;;;;;;;2.49;84.80;100818.19;20855614;28;20618;-68
2021/04/07 17:29:06;;;;;;;13.23;5.68;;;;;;;2.56;85.26;100830.16;20872189;28;20045;-69
2021/04/07 17:39:07;;;;;;;13.05;5.63;;;;;;;2.52;83.95;100831.09;20825301;28;20045;-68
2021/04/07 17:49:08;;;;;;;10.82;4.32;;;;;;;2.48;82.12;100833.75;20811133;28;20049;-69
2021/04/07 17:59:09;;;;;;;11.23;4.57;;;;;;;2.52;82.06;100833.69;20853441;28;20060;-68
2021/04/07 18:09:10;;;;;;;10.50;4.30;;;;;;;2.55;80.62;100843.09;20840577;28;20068;-69
2021/04/07 18:19:11;;;;;;;10.73;4.00;;;;;;;2.56;79.14;100845.66;20849845;28;20519;-69
2021/04/07 18:29:12;;;;;;;10.82;4.22;;;;;;;2.58;79.00;100867.19;20838256;28;20048;-69
2021/04/07 18:39:13;;;;;;;7.65;3.78;;;;;;;2.64;77.47;100875.72;20843976;28;20042;-69
2021/04/07 18:49:14;;;;;;;11.77;4.50;;;;;;;2.61;78.15;100889.53;20873778;28;20048;-69
2021/04/07 18:59:15;;;;;;;10.05;4.05;;;;;;;2.63;78.54;100892.09;20884661;28;20429;-69
2021/04/07 19:09:20;;;;;;;14.25;4.15;;;;;;;2.61;78.50;100889.53;20850161;28;20041;-69
2021/04/07 19:19:20;;;;;;;9.45;3.72;;;;;;;2.59;79.54;100886.94;20814680;28;20046;-69
2021/04/07 19:29:22;;;;;;;12.55;5.00;;;;;;;2.56;78.99;100892.19;20857557;28;20037;-69
2021/04/07 19:39:23;;;;;;;9.52;3.75;;;;;;;2.57;79.27;100887.88;20897601;28;20069;-68
2021/04/07 19:49:29;;;;;;;8.48;3.33;;;;;;;2.56;79.18;100897.34;20825647;28;20041;-68
2021/04/07 19:59:30;;;;;;;12.10;3.70;;;;;;;2.59;78.81;100897.28;20837551;28;20049;-68
2021/04/07 20:09:32;;;;;;;7.53;3.80;;;;;;;2.66;77.79;100892.91;20833192;28;20059;-68
2021/04/07 20:19:33;;;;;;;8.98;3.60;;;;;;;2.56;78.19;100894.75;20832702;28;20041;-68
2021/04/07 20:29:34;;;;;;;13.65;4.50;;;;;;;2.63;76.90;100903.28;20832080;28;20053;-68
2021/04/07 20:39:35;;;;;;;10.05;3.92;;;;;;;2.64;77.88;100909.31;20831426;28;20136;-68
2021/04/07 20:49:36;;;;;;;7.63;3.63;;;;;;;2.69;77.18;100915.28;20830599;28;20050;-68
2021/04/07 20:59:36;;;;;;;6.60;2.90;;;;;;;2.68;77.21;100916.16;20830859;28;20048;-68
2021/04/07 21:09:37;;;;;;;12.05;4.55;;;;;;;2.76;76.42;100911.72;20829034;28;20041;-68
2021/04/07 21:19:38;;;;;;;11.55;4.15;;;;;;;2.75;76.92;100923.78;20829507;28;20045;-67
2021/04/07 21:29:39;;;;;;;12.70;4.55;;;;;;;2.75;76.85;100908.28;20828546;28;20148;-67
2021/04/07 21:39:40;;;;;;;9.80;4.38;;;;;;;2.76;75.94;100924.63;20826012;28;20081;-67
2021/04/07 21:49:41;;;;;;;7.68;3.70;;;;;;;2.73;74.79;100932.44;20828822;28;20049;-68
2021/04/07 21:59:42;;;;;;;8.23;4.18;;;;;;;2.69;75.98;100944.56;20825943;28;20045;-68
2021/04/07 22:09:43;;;;;;;11.13;4.57;;;;;;;2.63;76.08;100948.94;20822643;28;20432;-68
2021/04/07 22:19:44;;;;;;;8.85;3.83;;;;;;;2.61;77.05;100950.69;20822547;28;20061;-68
2021/04/07 22:29:45;;;;;;;9.05;4.03;;;;;;;2.62;75.61;100952.41;20821299;28;20056;-68
2021/04/07 22:39:46;;;;;;;9.57;4.45;;;;;;;2.50;75.65;100954.25;20822447;28;20129;-68
2021/04/07 22:49:47;;;;;;;13.52;6.05;;;;;;;2.36;76.24;100957.88;20824309;28;20412;-68
2021/04/07 22:59:48;;;;;;;8.35;3.53;;;;;;;2.24;75.38;100966.63;20818733;28;20753;-68
2021/04/07 23:09:49;;;;;;;10.35;3.85;;;;;;;2.22;75.51;100973.53;20831470;28;20103;-68
2021/04/07 23:19:50;;;;;;;8.88;3.83;;;;;;;2.22;76.36;100967.53;20839007;28;20471;-67
2021/04/07 23:29:51;;;;;;;12.88;3.65;;;;;;;2.26;75.55;100971.78;20833781;28;20096;-68
2021/04/07 23:39:52;;;;;;;8.52;3.08;;;;;;;2.30;73.73;100969.13;20836072;28;20036;-68
2021/04/07 23:49:53;;;;;;;9.23;3.60;;;;;;;2.32;73.12;100975.16;20836020;28;20440;-69
2021/04/07 23:59:53;;;;;;;8.20;3.10;;;;;;;2.41;72.50;100990.53;20833902;28;20076;-68
